TAF and METAR

METAR for Keflavík International Airport

BIKF 030300Z 24011KT 9999 OVC014 07/04 Q1026
Report created 3. jun 05:00
wind 11 knots from WSW (240°) visibility > 10km overcast at 1400 feet Temperature 7° with dewpoint at 4° (Humidity 81.20%) Pressure 1026 hPa

TAF for Keflavík International Airport

TAF BIKF 030106Z 0303/0403 27012KT 9999 BKN015 OVC025 TX09/0315Z TN05/0324Z TEMPO 0303/0315 3000 DZ BR BKN004 BECMG 0311/0313 30007KT
Report created 3. jun 03:06

between 3. jun 05:00 - 4. jun 05:00

wind 12 knots from W (270°) visibility > 10km broken clouds (~75% cover) at 1500 feet overcast at 2500 feet Max temperature 09° expected today at around 17 o'clock Min temperature 05° expected tomorrow at around 02 o'clock

temporarily between 3. jun 05:00 - 3. jun 17:00

visibility 3000 meters drizzle mist broken clouds (~75% cover) at 400 feet

becoming between 3. jun 13:00 - 3. jun 15:00

wind 7 knots from WNW (300°)
Keflavík International Airport in Iceland at 54m

Latest 5 airports